Map

Track Data

SID SEASON NUMBER BASIN SUBBASIN NAME ISO_TIME NATURE LAT LON WMO_WIND WMO_PRES WMO_AGENCY TRACK_TYPE DIST2LAND LANDFALL IFLAG USA_AGENCY USA_ATCF_ID USA_LAT USA_LON USA_RECORD USA_STATUS USA_WIND USA_PRES USA_SSHS USA_R34_NE USA_R34_SE USA_R34_SW USA_R34_NW USA_R50_NE USA_R50_SE USA_R50_SW USA_R50_NW USA_R64_NE USA_R64_SE USA_R64_SW USA_R64_NW USA_POCI USA_ROCI USA_RMW USA_EYE TOKYO_LAT TOKYO_LON TOKYO_GRADE TOKYO_WIND TOKYO_PRES TOKYO_R50_DIR TOKYO_R50_LONG TOKYO_R50_SHORT TOKYO_R30_DIR TOKYO_R30_LONG TOKYO_R30_SHORT TOKYO_LAND CMA_LAT CMA_LON CMA_CAT CMA_WIND CMA_PRES HKO_LAT HKO_LON HKO_CAT HKO_WIND HKO_PRES NEWDELHI_LAT NEWDELHI_LON NEWDELHI_GRADE NEWDELHI_WIND NEWDELHI_PRES NEWDELHI_CI NEWDELHI_DP NEWDELHI_POCI REUNION_LAT REUNION_LON REUNION_TYPE REUNION_WIND REUNION_PRES REUNION_TNUM REUNION_CI REUNION_RMW REUNION_R34_NE REUNION_R34_SE REUNION_R34_SW REUNION_R34_NW REUNION_R50_NE REUNION_R50_SE REUNION_R50_SW REUNION_R50_NW REUNION_R64_NE REUNION_R64_SE REUNION_R64_SW REUNION_R64_NW BOM_LAT BOM_LON BOM_TYPE BOM_WIND BOM_PRES BOM_TNUM BOM_CI BOM_RMW BOM_R34_NE BOM_R34_SE BOM_R34_SW BOM_R34_NW BOM_R50_NE BOM_R50_SE BOM_R50_SW BOM_R50_NW BOM_R64_NE BOM_R64_SE BOM_R64_SW BOM_R64_NW BOM_ROCI BOM_POCI BOM_EYE BOM_POS_METHOD BOM_PRES_METHOD NADI_LAT NADI_LON NADI_CAT NADI_WIND NADI_PRES WELLINGTON_LAT WELLINGTON_LON WELLINGTON_WIND WELLINGTON_PRES DS824_LAT DS824_LON DS824_STAGE DS824_WIND DS824_PRES TD9636_LAT TD9636_LON TD9636_STAGE TD9636_WIND TD9636_PRES TD9635_LAT TD9635_LON TD9635_WIND TD9635_PRES TD9635_ROCI NEUMANN_LAT NEUMANN_LON NEUMANN_CLASS NEUMANN_WIND NEUMANN_PRES MLC_LAT MLC_LON MLC_CLASS MLC_WIND MLC_PRES USA_GUST BOM_GUST BOM_GUST_PER REUNION_GUST REUNION_GUST_PER USA_SEAHGT USA_SEARAD_NE USA_SEARAD_SE USA_SEARAD_SW USA_SEARAD_NW STORM_SPEED STORM_DIR
1961100N10110 1961 33 WP MM VIOLA 1961-04-09 12:00:00 NR 9.60000 110.400 main 253 244 ______________ -1 9 240
1961100N10110 1961 33 WP MM VIOLA 1961-04-09 15:00:00 NR 9.38625 110.023 main 246 235 ______________ -1 8 245
1961100N10110 1961 33 WP MM VIOLA 1961-04-09 18:00:00 TS 9.23892 109.624 main 237 197 O________O_O__ jtwc_wp WP041961 9.30000 109.600 50 0 9.30000 109.600 TC 50 9.30000 109.600 50 994 180 10 265
1961100N10110 1961 33 WP MM VIOLA 1961-04-09 21:00:00 TS 9.30143 109.051 main 197 155 P________P_P__ WP041961 9.51539 108.903 50 0 9.51539 108.903 TC 50 9.51539 108.903 50 994 180 11 279
1961100N10110 1961 33 WP MM VIOLA 1961-04-10 00:00:00 TS 9.41333 108.500 main 155 133 O__O_____OOO__ jtwc_wp WP041961 9.70000 108.300 50 0 9.00000 108.900 TD 30 1005 9.70000 108.300 TC 50 9.70000 108.300 2 50 9.70000 108.300 50 995 180 10 281
1961100N10110 1961 33 WP MM VIOLA 1961-04-10 03:00:00 TS 9.49594 108.045 main 126 109 P__P_____PPP__ WP041961 9.82981 107.855 45 0 8.94769 108.340 TD 32 1004 9.82981 107.855 TC 45 9.75061 107.925 2 43 9.82981 107.855 45 998 180 8 271
1961100N10110 1961 33 WP MM VIOLA 1961-04-10 06:00:00 TS 9.43272 107.694 main 120 98 O__O_____OPO__ jtwc_wp WP041961 9.90000 107.500 40 0 8.90000 107.800 TS 35 1004 9.90000 107.500 TC 40 9.80082 107.550 2 37 9.90000 107.500 40 1001 180 7 251
1961100N10110 1961 33 WP MM VIOLA 1961-04-10 09:00:00 TS 9.26163 107.348 main 88 86 P__P_____PPP__ WP041961 9.91513 107.153 32 -1 8.85740 107.293 TS 35 1003 9.91513 107.153 TC 32 9.85062 107.175 2 31 9.91513 107.153 32 1003 180 8 238
1961100N10110 1961 33 WP MM VIOLA 1961-04-10 12:00:00 TS 9.00000 107.000 main 86 86 O__O_____OOO__ jtwc_wp WP041961 9.90000 106.800 25 -1 8.80000 106.800 TS 35 1002 9.90000 106.800 TC 25 9.90000 106.800 1 25 9.90000 106.800 25 1005 180 11 221
1961100N10110 1961 33 WP MM VIOLA 1961-04-10 15:00:00 NR 8.46362 106.634 main 114 109 ___P__________ WP041961 -1 8.71499 106.285 TS 32 1003 TC 1 10 229
1961100N10110 1961 33 WP MM VIOLA 1961-04-10 18:00:00 NR 8.34150 106.236 main 113 94 ___O__________ -1 8.60000 105.800 TD 30 1005 1 8 252
1961100N10110 1961 33 WP MM VIOLA 1961-04-10 21:00:00 NR 8.22528 105.901 main 94 80 ___P__________ -1 8.45754 105.380 TD 27 1005 1 6 251
1961100N10110 1961 33 WP MM VIOLA 1961-04-11 00:00:00 NR 8.14000 105.640 main 85 81 ___O__________ -1 8.30000 105.000 TD 25 1006 4 253
1961100N10110 1961 33 WP MM VIOLA 1961-04-11 03:00:00 NR 8.11686 105.531 main 81 67 ______________ -1 TD 3 274
1961100N10110 1961 33 WP MM VIOLA 1961-04-11 06:00:00 NR 8.16204 105.300 main 67 60 ______________ -1 5 283
1961100N10110 1961 33 WP MM VIOLA 1961-04-11 09:00:00 NR 8.22623 105.069 main 60 44 ______________ -1 5 286
1961100N10110 1961 33 WP MM VIOLA 1961-04-11 12:00:00 NR 8.30000 104.800 main 46 46 ______________ -1 6 284
1961100N10110 1961 33 WP MM VIOLA 1961-04-11 15:00:00 NR 8.37540 104.466 main 55 55 ______________ -1 7 282
1961100N10110 1961 33 WP MM VIOLA 1961-04-11 18:00:00 NR 8.45066 104.075 main 84 84 ______________ -1 8 281
1961100N10110 1961 33 WP MM VIOLA 1961-04-11 21:00:00 NR 8.52557 103.647 main 136 136 ______________ -1 9 280
1961100N10110 1961 33 WP MM VIOLA 1961-04-12 00:00:00 NR 8.60000 103.200 main 177 ______________ -1 9 280

Digital Typhoon Data and Search

About IBTrACS Database

This database is a web-friendly format of International Best Track Archive for Climate Stewardship (IBTrACS), a global best track data archive curated by NOAA dating back to 1842.

Updated: 2021-10-08